Time;durP1;ratioP1;P1;durP2;ratioP2;P2;SDS_P1;SDS_P2;PMS_P1;PMS_P2;Temp;Humidity;BMP_temperature;BMP_pressure;BME280_temperature;BME280_humidity;BME280_pressure;Samples;Min_cycle;Max_cycle;Signal;HPM_P1;HPM_P2
2022/12/15 00:38:46;;;;;;;9.47;6.97;;;;;;;8.32;67.01;93845.44;5068758;28;20252;-44
2022/12/15 00:41:16;;;;;;;9.30;7.30;;;;;;;8.26;67.22;93822.16;5068637;28;20213;-44
2022/12/15 00:43:44;;;;;;;9.63;8.10;;;;;;;8.30;67.27;93823.47;5068587;28;20232;-45
2022/12/15 00:50:50;;;;;;;8.47;7.07;;;;;;;8.30;66.97;93803.09;5026088;28;20234;-45
2022/12/15 01:22:00;;;;;;;8.57;7.77;;;;;;;8.21;67.78;93747.94;5029376;28;20203;-43
2022/12/15 01:24:27;;;;;;;8.50;7.60;;;;;;;8.21;67.72;93745.41;5043975;28;20194;-46
2022/12/15 01:26:53;;;;;;;7.83;7.03;;;;;;;8.22;67.81;93751.28;5077796;28;20209;-44
2022/12/15 01:29:22;;;;;;;9.90;8.10;;;;;;;8.22;67.82;93756.38;5091923;28;20198;-43
2022/12/15 01:31:49;;;;;;;8.20;7.07;;;;;;;8.21;67.79;93754.78;5091785;28;20197;-47
2022/12/15 01:34:16;;;;;;;8.47;7.57;;;;;;;8.21;67.88;93775.97;5091694;28;20186;-44
2022/12/15 01:36:43;;;;;;;9.63;7.60;;;;;;;8.21;67.97;93768.31;5091402;28;20647;-45
2022/12/15 01:39:10;;;;;;;8.80;7.63;;;;;;;8.22;67.72;93779.31;5091455;28;20201;-44
2022/12/15 01:41:36;;;;;;;9.90;7.70;;;;;;;8.22;67.98;93752.09;5085471;28;20191;-44
2022/12/15 01:44:16;;;;;;;10.73;7.60;;;;;;;8.22;67.87;93734.25;5071515;28;20590;-45
2022/12/15 01:46:44;;;;;;;10.07;7.30;;;;;;;8.22;67.91;93744.44;5071457;28;20214;-45
2022/12/15 01:49:15;;;;;;;8.53;7.60;;;;;;;8.22;67.97;93757.19;5072481;28;20193;-45
2022/12/15 01:51:47;;;;;;;10.60;6.87;;;;;;;8.19;67.98;93737.09;5071031;28;20252;-45
2022/12/15 01:54:19;;;;;;;8.63;7.73;;;;;;;8.23;68.04;93727.41;5071004;28;20206;-44
2022/12/15 01:56:50;;;;;;;8.03;7.23;;;;;;;8.22;68.04;93708.78;5080359;28;20243;-47
2022/12/15 01:59:21;;;;;;;9.73;7.17;;;;;;;8.10;68.14;93681.16;5091562;28;20197;-45
2022/12/15 02:01:49;;;;;;;7.97;6.70;;;;;;;8.20;67.98;93708.16;5090854;28;20337;-46
2022/12/15 02:04:17;;;;;;;7.63;6.40;;;;;;;8.20;68.12;93692.06;5091116;28;20637;-45
2022/12/15 02:06:44;;;;;;;7.57;6.30;;;;;;;8.19;68.30;93690.47;5090927;28;20701;-44
2022/12/15 02:09:11;;;;;;;7.10;6.17;;;;;;;8.17;68.21;93682.19;5091042;28;20231;-44
2022/12/15 02:11:59;;;;;;;8.90;6.47;;;;;;;8.16;68.31;93695.84;5090407;28;20185;-45
2022/12/15 02:14:47;;;;;;;7.03;6.07;;;;;;;8.18;68.48;93699.06;5090594;28;20193;-47
2022/12/15 02:17:28;;;;;;;7.67;6.57;;;;;;;8.19;68.42;93682.81;5091141;28;20197;-45
2022/12/15 02:20:25;;;;;;;7.20;5.90;;;;;;;8.15;68.65;93671.31;5091041;28;20193;-46
2022/12/15 02:23:12;;;;;;;7.00;6.30;;;;;;;8.18;68.60;93679.47;5090634;28;20319;-44
2022/12/15 02:26:07;;;;;;;7.10;6.33;;;;;;;8.19;68.63;93665.78;5086018;28;20186;-43
2022/12/15 02:28:52;;;;;;;6.77;6.10;;;;;;;8.17;68.65;93660.06;5070641;28;20214;-45
2022/12/15 02:34:14;;;;;;;5.60;5.10;;;;;;;8.21;68.63;93694.47;5070582;28;20182;-45
2022/12/15 02:36:44;;;;;;;5.33;4.83;;;;;;;8.22;68.72;93683.31;5070436;28;20679;-45
2022/12/15 02:39:12;;;;;;;7.07;5.23;;;;;;;8.25;68.69;93692.44;5070509;28;20285;-44
2022/12/15 02:41:42;;;;;;;5.67;5.13;;;;;;;8.27;68.62;93677.78;5070189;28;20548;-43
2022/12/15 02:44:14;;;;;;;5.30;4.80;;;;;;;8.28;68.71;93669.19;5070197;28;20190;-45
2022/12/15 02:46:59;;;;;;;5.43;4.70;;;;;;;8.30;68.55;93700.41;5070091;28;20233;-45
2022/12/15 02:49:34;;;;;;;5.47;4.90;;;;;;;8.32;68.62;93710.44;5070093;28;20649;-45
2022/12/15 02:52:12;;;;;;;5.27;4.77;;;;;;;8.34;68.54;93734.03;5069814;28;20346;-45
2022/12/15 02:54:53;;;;;;;6.93;5.20;;;;;;;8.36;68.75;93719.41;5070150;28;20186;-47
2022/12/15 02:57:26;;;;;;;6.43;5.73;;;;;;;8.28;68.65;93710.75;5069804;28;20233;-44
2022/12/15 02:59:58;;;;;;;5.83;5.23;;;;;;;8.39;68.90;93719.13;5069605;28;20304;-44
2022/12/15 03:02:30;;;;;;;5.70;5.20;;;;;;;8.41;68.59;93712.13;5070424;28;20201;-43
2022/12/15 03:04:57;;;;;;;5.50;5.00;;;;;;;8.42;68.68;93729.84;5069615;28;20193;-43
2022/12/15 03:07:26;;;;;;;6.13;5.27;;;;;;;8.42;68.60;93727.28;5069248;28;20701;-44
2022/12/15 03:09:54;;;;;;;5.77;5.17;;;;;;;8.45;68.71;93700.69;5069560;28;20186;-45
2022/12/15 03:12:21;;;;;;;6.57;5.13;;;;;;;8.28;68.51;93687.81;5069856;28;20272;-44
2022/12/15 03:14:48;;;;;;;5.60;5.10;;;;;;;8.46;68.77;93715.84;5069834;28;20334;-43
2022/12/15 03:17:15;;;;;;;6.33;5.43;;;;;;;8.47;68.93;93712.34;5069415;28;20244;-44
2022/12/15 03:19:44;;;;;;;5.93;5.10;;;;;;;8.47;68.87;93714.09;5069609;28;20233;-43
2022/12/15 03:22:10;;;;;;;6.00;5.10;;;;;;;8.48;68.92;93715.69;5087161;28;20204;-45
2022/12/15 03:24:37;;;;;;;5.67;5.10;;;;;;;8.48;68.86;93736.88;5089026;28;20660;-44
2022/12/15 03:27:04;;;;;;;7.57;5.50;;;;;;;8.48;68.94;93723.34;5089872;28;20583;-44
2022/12/15 03:29:31;;;;;;;5.80;5.20;;;;;;;8.48;68.53;93721.59;5088131;28;20192;-44
2022/12/15 03:31:58;;;;;;;6.10;5.40;;;;;;;8.49;69.17;93714.75;5089957;28;20239;-45
2022/12/15 03:34:25;;;;;;;5.87;5.27;;;;;;;8.48;68.88;93711.41;5089828;28;20182;-45
2022/12/15 03:36:53;;;;;;;5.80;5.17;;;;;;;8.49;68.91;93724.94;5089275;28;20284;-44
2022/12/15 03:39:20;;;;;;;5.97;5.37;;;;;;;8.49;68.94;93733.38;5088873;28;20236;-42
2022/12/15 03:41:47;;;;;;;6.13;5.13;;;;;;;8.49;69.07;93712.19;5089391;28;20193;-46
2022/12/15 03:44:13;;;;;;;6.60;5.50;;;;;;;8.48;69.16;93708.06;5089323;28;20194;-44
2022/12/15 03:46:40;;;;;;;6.43;5.50;;;;;;;8.49;69.00;93723.19;5089485;28;20316;-43
2022/12/15 03:49:07;;;;;;;5.40;4.90;;;;;;;8.46;69.00;93731.13;5089531;28;20201;-43
2022/12/15 03:51:34;;;;;;;7.03;5.97;;;;;;;8.49;69.00;93735.13;5089290;28;20188;-42
2022/12/15 03:54:02;;;;;;;8.37;5.73;;;;;;;8.28;69.06;93715.81;5077007;28;20284;-44
2022/12/15 03:56:29;;;;;;;6.63;6.00;;;;;;;8.43;69.18;93739.06;5086756;28;20221;-44
2022/12/15 03:58:56;;;;;;;8.40;6.13;;;;;;;8.48;69.04;93749.63;5086902;28;20185;-45
2022/12/15 04:01:27;;;;;;;7.97;5.60;;;;;;;8.49;69.18;93758.84;5086321;28;20197;-44
2022/12/15 04:03:54;;;;;;;7.63;5.57;;;;;;;8.41;68.99;93746.03;5086364;28;20276;-45
2022/12/15 04:06:21;;;;;;;6.00;5.40;;;;;;;8.49;69.13;93760.59;5086378;28;20231;-44
2022/12/15 04:08:48;;;;;;;6.37;5.70;;;;;;;8.49;69.43;93755.50;5080677;28;20227;-45
2022/12/15 04:11:16;;;;;;;6.87;6.00;;;;;;;8.49;69.19;93756.31;5066464;28;20187;-45
2022/12/15 04:13:43;;;;;;;7.30;5.73;;;;;;;8.50;69.19;93769.84;5066267;28;20183;-44
2022/12/15 04:16:09;;;;;;;8.20;5.90;;;;;;;8.49;69.13;93766.50;5066613;28;20193;-44
2022/12/15 04:18:36;;;;;;;7.23;6.47;;;;;;;8.27;69.20;93721.88;5066038;28;20194;-44
2022/12/15 04:21:02;;;;;;;6.63;6.03;;;;;;;8.50;69.42;93764.75;5066821;28;20297;-44
2022/12/15 04:23:30;;;;;;;6.53;5.67;;;;;;;8.52;69.37;93762.88;5071289;28;20280;-43
2022/12/15 05:32:03;;;;;;;8.93;6.93;;;;;;;10.10;100.00;93862.84;5088079;28;20313;-43
2022/12/15 05:34:33;;;;;;;7.10;6.40;;;;;;;10.93;100.00;93864.63;5089189;28;20193;-43
2022/12/15 05:37:01;;;;;;;12.13;5.93;;;;;;;11.71;100.00;93867.38;5075238;28;20197;-44
2022/12/15 05:39:28;;;;;;;6.07;4.57;;;;;;;12.44;100.00;93878.31;5069046;28;20205;-43
2022/12/15 05:41:56;;;;;;;5.40;4.53;;;;;;;13.07;100.00;93882.34;5069441;28;20946;-43
2022/12/15 05:44:24;;;;;;;5.07;4.40;;;;;;;13.64;100.00;93896.47;5069142;28;20194;-43
2022/12/15 05:46:50;;;;;;;4.30;3.90;;;;;;;14.08;96.42;93917.06;5068556;28;20221;-46
2022/12/15 05:49:18;;;;;;;5.17;4.70;;;;;;;14.18;94.53;93894.44;5082866;28;20178;-44
2022/12/15 05:51:48;;;;;;;6.70;5.10;;;;;;;14.32;92.41;93918.53;5089259;28;20569;-45
2022/12/15 05:54:16;;;;;;;6.00;4.97;;;;;;;14.17;89.69;93944.28;5079464;28;20198;-44
2022/12/15 05:56:43;;;;;;;4.70;4.30;;;;;;;13.98;86.51;93942.22;5074640;28;20693;-44
2022/12/15 05:59:10;;;;;;;6.77;4.80;;;;;;;13.75;84.18;93948.25;5089526;28;20274;-46
2022/12/15 06:01:37;;;;;;;5.23;4.37;;;;;;;13.50;82.01;93955.38;5082294;28;20263;-45
2022/12/15 06:04:06;;;;;;;6.60;5.13;;;;;;;13.27;80.10;93957.97;5075418;28;20186;-52
2022/12/15 06:06:33;;;;;;;5.70;4.60;;;;;;;13.04;78.84;93949.44;5071816;28;20267;-44
2022/12/15 06:09:02;;;;;;;5.77;5.17;;;;;;;12.82;77.97;93963.84;5070514;28;20596;-45
2022/12/15 06:11:29;;;;;;;5.20;4.70;;;;;;;12.62;77.48;93966.03;5070842;28;20342;-46
2022/12/15 06:13:57;;;;;;;6.57;5.20;;;;;;;12.43;77.24;93967.22;5070856;28;20670;-46
2022/12/15 06:16:26;;;;;;;5.70;5.20;;;;;;;12.23;76.75;93966.84;5070751;28;20740;-46
2022/12/15 06:18:55;;;;;;;5.57;5.07;;;;;;;12.00;76.77;93966.75;5071124;28;20220;-46
2022/12/15 06:21:24;;;;;;;8.00;4.80;;;;;;;11.90;76.67;93975.56;5070487;28;20179;-44
2022/12/15 06:23:51;;;;;;;5.80;5.20;;;;;;;11.75;76.42;93988.22;5078512;28;20190;-44
2022/12/15 06:26:22;;;;;;;6.17;5.53;;;;;;;11.61;76.29;93987.09;5079094;28;20264;-44
2022/12/15 06:28:49;;;;;;;7.87;6.10;;;;;;;11.49;76.54;93983.28;5091051;28;20178;-45
2022/12/15 06:31:21;;;;;;;9.60;5.37;;;;;;;10.87;76.51;93894.16;5090443;28;20192;-44
2022/12/15 06:33:48;;;;;;;5.70;5.20;;;;;;;11.26;76.73;93991.59;5090667;28;20220;-47
2022/12/15 06:36:17;;;;;;;6.83;5.30;;;;;;;11.14;76.56;94002.28;5088431;28;20205;-43
2022/12/15 06:38:45;;;;;;;6.23;5.00;;;;;;;10.86;76.51;93974.44;5090569;28;20193;-44
2022/12/15 06:41:14;;;;;;;6.13;5.53;;;;;;;10.99;76.57;94002.91;5089907;28;20186;-44
2022/12/15 06:43:43;;;;;;;6.87;5.80;;;;;;;10.90;76.67;94005.59;5089582;28;20200;-45
2022/12/15 06:46:10;;;;;;;7.40;5.73;;;;;;;10.90;76.51;94001.28;5090928;28;20182;-44
2022/12/15 06:48:36;;;;;;;5.90;5.30;;;;;;;10.78;76.58;93987.19;5090314;28;20222;-44
2022/12/15 06:51:04;;;;;;;6.53;5.63;;;;;;;10.82;76.69;94014.06;5090166;28;20181;-44
2022/12/15 06:53:31;;;;;;;7.20;6.10;;;;;;;10.80;76.73;94009.09;5089773;28;20221;-44
2022/12/15 06:56:00;;;;;;;7.13;6.30;;;;;;;10.77;76.40;94003.50;5089328;28;20230;-44
2022/12/15 06:58:27;;;;;;;7.40;6.27;;;;;;;10.74;76.42;94025.06;5088737;28;20255;-42
2022/12/15 07:00:56;;;;;;;7.23;6.23;;;;;;;10.69;76.24;94011.94;5090186;28;20178;-47
2022/12/15 07:03:23;;;;;;;9.97;6.53;;;;;;;10.70;76.33;94020.41;5090103;28;20186;-44
2022/12/15 07:06:00;;;;;;;9.83;6.67;;;;;;;10.70;76.20;94028.88;5089691;28;20695;-43
2022/12/15 07:08:27;;;;;;;6.90;6.03;;;;;;;10.73;75.91;94035.44;5089457;28;20224;-45
2022/12/15 07:10:54;;;;;;;6.73;5.73;;;;;;;10.74;76.07;94035.28;5089383;28;20192;-43
2022/12/15 07:13:21;;;;;;;6.17;5.57;;;;;;;10.72;75.69;94031.31;5089257;28;20640;-42
2022/12/15 07:15:48;;;;;;;7.43;6.43;;;;;;;10.92;75.27;94050.53;5090148;28;20197;-43
2022/12/15 07:18:17;;;;;;;7.80;6.30;;;;;;;11.02;75.02;94061.44;5089349;28;20194;-43
2022/12/15 07:20:44;;;;;;;7.30;6.20;;;;;;;11.09;74.74;94061.59;5089970;28;20201;-45
2022/12/15 07:23:12;;;;;;;7.57;5.63;;;;;;;11.10;74.72;94060.66;5089235;28;20189;-43
2022/12/15 07:25:39;;;;;;;7.10;6.40;;;;;;;11.10;74.54;94065.78;5089043;28;20208;-44
2022/12/15 07:28:07;;;;;;;7.20;6.43;;;;;;;11.11;74.46;94056.34;5089309;28;20680;-44
2022/12/15 07:30:34;;;;;;;7.37;6.00;;;;;;;11.13;74.35;94068.00;5085947;28;20190;-45
2022/12/15 07:33:02;;;;;;;7.23;6.07;;;;;;;11.14;74.33;94074.75;5073206;28;20182;-44
2022/12/15 07:35:30;;;;;;;7.23;6.07;;;;;;;11.14;74.41;94076.50;5089361;28;20186;-43
2022/12/15 07:37:58;;;;;;;7.37;6.53;;;;;;;11.16;74.18;94077.16;5082196;28;20704;-42
2022/12/15 07:40:24;;;;;;;7.37;6.33;;;;;;;11.20;74.05;94071.56;5073579;28;20209;-44
2022/12/15 07:42:52;;;;;;;7.10;6.27;;;;;;;11.24;73.80;94087.41;5080642;28;20197;-42
2022/12/15 07:45:19;;;;;;;7.03;6.03;;;;;;;11.28;73.44;94078.47;5082150;28;20190;-44
2022/12/15 07:47:49;;;;;;;8.43;6.80;;;;;;;11.33;73.50;94086.47;5079136;28;20308;-43
2022/12/15 07:50:16;;;;;;;7.70;6.43;;;;;;;11.36;73.33;94086.16;5069690;28;20221;-43
2022/12/15 07:52:44;;;;;;;7.03;6.27;;;;;;;11.38;73.20;94081.66;5070332;28;20178;-44
2022/12/15 07:55:11;;;;;;;8.07;7.00;;;;;;;11.44;73.01;94098.16;5075137;28;20248;-45
2022/12/15 07:57:38;;;;;;;10.83;7.00;;;;;;;11.50;72.86;94103.47;5075666;28;20237;-43
2022/12/15 08:00:06;;;;;;;8.70;7.17;;;;;;;11.55;72.63;94105.53;5073554;28;20622;-46
2022/12/15 08:02:32;;;;;;;8.20;6.60;;;;;;;11.53;72.46;94099.78;5079744;28;20218;-43
2022/12/15 08:04:59;;;;;;;8.50;7.60;;;;;;;11.64;72.51;94125.06;5080366;28;20197;-47
2022/12/15 08:07:26;;;;;;;8.87;7.17;;;;;;;11.69;72.25;94122.03;5081781;28;20685;-43
2022/12/15 08:09:54;;;;;;;7.93;7.00;;;;;;;11.70;72.12;94123.63;5076428;28;20760;-43
2022/12/15 08:12:21;;;;;;;8.43;6.90;;;;;;;11.76;71.99;94116.13;5071582;28;20205;-43
2022/12/15 08:14:48;;;;;;;9.93;8.13;;;;;;;11.80;72.04;94124.31;5072334;28;20268;-43
2022/12/15 08:17:14;;;;;;;9.90;6.93;;;;;;;11.83;71.79;94112.94;5081452;28;20656;-43
2022/12/15 08:19:41;;;;;;;8.00;7.07;;;;;;;11.86;71.59;94122.88;5071736;28;20326;-43
2022/12/15 08:22:08;;;;;;;8.90;7.27;;;;;;;11.91;71.48;94125.78;5073144;28;20190;-43
2022/12/15 08:24:35;;;;;;;8.07;7.13;;;;;;;11.97;71.37;94125.94;5087351;28;20668;-44
2022/12/15 08:27:07;;;;;;;8.37;7.57;;;;;;;12.03;71.22;94127.06;5081502;28;20617;-43
2022/12/15 08:29:34;;;;;;;9.10;6.97;;;;;;;12.12;70.90;94128.66;5087839;28;20190;-43
2022/12/15 08:32:01;;;;;;;8.83;7.07;;;;;;;12.18;70.85;94142.59;5083530;28;20580;-44
2022/12/15 08:34:28;;;;;;;7.53;6.50;;;;;;;12.21;70.51;94137.94;5080261;28;20206;-44
2022/12/15 08:36:55;;;;;;;9.10;7.57;;;;;;;12.33;70.50;94147.88;5071945;28;20194;-44
2022/12/15 08:39:22;;;;;;;8.77;6.63;;;;;;;12.39;70.16;94147.22;5072352;28;20225;-43
2022/12/15 08:41:49;;;;;;;7.87;7.07;;;;;;;12.44;70.08;94135.53;5071856;28;20190;-43
2022/12/15 08:44:18;;;;;;;8.53;6.93;;;;;;;12.51;69.66;94149.28;5071956;28;20499;-44
2022/12/15 08:46:44;;;;;;;8.77;7.10;;;;;;;12.57;70.02;94147.06;5074933;28;20186;-45
2022/12/15 08:49:11;;;;;;;8.27;7.43;;;;;;;12.63;69.67;94157.44;5071848;28;20275;-44
2022/12/15 08:51:38;;;;;;;8.37;6.90;;;;;;;12.69;69.45;94151.66;5084877;28;20638;-44
2022/12/15 08:54:05;;;;;;;7.67;6.97;;;;;;;12.78;69.09;94152.47;5082036;28;20174;-43
2022/12/15 08:56:32;;;;;;;7.93;6.73;;;;;;;12.90;68.85;94150.31;5083191;28;20312;-44
2022/12/15 08:59:01;;;;;;;9.70;6.80;;;;;;;12.99;68.87;94154.47;5075305;28;20183;-45
2022/12/15 09:01:31;;;;;;;8.30;6.47;;;;;;;13.06;68.46;94145.16;5075083;28;20590;-44
2022/12/15 09:04:00;;;;;;;9.83;7.60;;;;;;;13.11;68.63;94152.34;5078146;28;20255;-44
2022/12/15 09:06:29;;;;;;;8.33;7.40;;;;;;;13.15;68.59;94135.66;5083123;28;20205;-43
2022/12/15 09:08:57;;;;;;;7.40;6.70;;;;;;;12.94;68.56;94106.19;5092156;28;20210;-43
2022/12/15 09:11:24;;;;;;;9.67;7.53;;;;;;;13.20;68.49;94138.50;5072718;28;20190;-44
2022/12/15 09:13:51;;;;;;;7.70;6.90;;;;;;;13.23;68.27;94143.34;5071660;28;20190;-45
2022/12/15 09:16:20;;;;;;;7.70;6.90;;;;;;;13.26;68.27;94135.31;5071533;28;20194;-44
2022/12/15 09:18:50;;;;;;;8.57;7.47;;;;;;;13.28;68.16;94153.91;5084942;28;20190;-45
2022/12/15 09:21:21;;;;;;;7.53;6.60;;;;;;;13.35;68.16;94136.88;5074025;28;20183;-43
2022/12/15 09:23:50;;;;;;;9.17;7.70;;;;;;;13.45;67.94;94145.16;5072121;28;20247;-45
2022/12/15 09:26:18;;;;;;;9.90;7.63;;;;;;;13.58;67.50;94152.31;5084582;28;20201;-49
2022/12/15 09:28:44;;;;;;;9.07;7.87;;;;;;;13.69;67.46;94153.72;5076887;28;20611;-44
2022/12/15 09:31:13;;;;;;;9.63;7.53;;;;;;;13.74;67.42;94154.78;5088387;28;20649;-44
2022/12/15 09:33:41;;;;;;;9.00;8.07;;;;;;;13.83;67.29;94147.03;5091144;28;20213;-43
2022/12/15 09:36:13;;;;;;;9.43;8.43;;;;;;;13.96;67.10;94158.34;5089023;28;20193;-44
2022/12/15 09:38:41;;;;;;;10.87;8.60;;;;;;;14.10;66.81;94158.56;5073614;28;20190;-45
2022/12/15 09:41:13;;;;;;;9.17;7.80;;;;;;;14.17;66.61;94150.00;5071204;28;20194;-44
2022/12/15 09:43:48;;;;;;;8.43;7.63;;;;;;;14.43;66.19;94156.53;5076348;28;20284;-44
2022/12/15 09:46:26;;;;;;;9.83;8.13;;;;;;;14.64;66.01;94148.97;5086478;28;20178;-44
2022/12/15 09:48:56;;;;;;;12.00;8.63;;;;;;;14.85;65.76;94157.75;5070710;28;20253;-44
2022/12/15 09:51:33;;;;;;;11.40;8.10;;;;;;;15.04;65.46;94154.69;5085870;28;20541;-44
2022/12/15 09:54:00;;;;;;;10.30;8.93;;;;;;;15.19;65.22;94154.66;5070915;28;20214;-43
2022/12/15 09:56:37;;;;;;;11.93;9.20;;;;;;;15.34;65.08;94162.38;5070878;28;20249;-45
2022/12/15 09:59:19;;;;;;;9.80;8.80;;;;;;;15.50;64.80;94151.84;5089182;28;20195;-44
2022/12/15 10:01:55;;;;;;;10.07;8.70;;;;;;;15.67;64.58;94160.19;5079302;28;20205;-46
2022/12/15 10:04:34;;;;;;;9.60;7.73;;;;;;;15.80;64.48;94147.44;5083668;28;20212;-43
2022/12/15 10:07:08;;;;;;;10.10;8.23;;;;;;;15.99;64.19;94144.28;5084854;28;20201;-45
2022/12/15 10:09:37;;;;;;;9.90;8.30;;;;;;;16.16;63.96;94144.84;5070435;28;20210;-43
2022/12/15 10:12:10;;;;;;;10.97;8.40;;;;;;;16.24;63.77;94144.72;5073914;28;20194;-43
2022/12/15 10:14:42;;;;;;;10.00;8.10;;;;;;;16.35;63.66;94156.28;5090590;28;20197;-45
2022/12/15 10:17:21;;;;;;;9.87;7.93;;;;;;;16.42;63.55;94146.84;5088378;28;20224;-46
2022/12/15 10:19:54;;;;;;;8.60;7.67;;;;;;;16.49;63.46;94147.69;5073076;28;20194;-45
2022/12/15 10:22:25;;;;;;;8.77;7.67;;;;;;;16.53;63.35;94150.69;5070043;28;20197;-47
2022/12/15 10:24:53;;;;;;;9.03;7.90;;;;;;;16.61;63.30;94162.66;5074868;28;20264;-46
2022/12/15 10:27:56;;;;;;;13.13;8.00;;;;;;;16.51;63.12;94143.13;5087179;28;20700;-45
2022/12/15 10:30:23;;;;;;;9.80;8.23;;;;;;;16.62;63.10;94157.28;5090069;28;20197;-43
2022/12/15 10:32:57;;;;;;;10.83;8.20;;;;;;;16.62;63.13;94172.78;5087048;28;20190;-44
2022/12/15 10:35:28;;;;;;;8.87;7.73;;;;;;;16.54;63.27;94163.41;5086320;28;20197;-43
2022/12/15 10:37:58;;;;;;;10.33;7.63;;;;;;;16.54;63.25;94171.16;5084121;28;20285;-44
2022/12/15 10:40:45;;;;;;;9.67;7.30;;;;;;;16.38;63.07;94149.97;5069284;28;20727;-47
2022/12/15 10:43:14;;;;;;;12.20;8.83;;;;;;;16.47;63.25;94166.91;5069720;28;20217;-46
2022/12/15 10:45:41;;;;;;;9.33;8.30;;;;;;;16.44;63.34;94165.50;5087008;28;20190;-46
2022/12/15 10:48:18;;;;;;;10.53;9.10;;;;;;;16.29;63.21;94144.16;5072410;28;20701;-46
2022/12/15 10:50:46;;;;;;;12.90;9.83;;;;;;;16.39;63.26;94164.47;5078329;28;20194;-45
2022/12/15 10:53:34;;;;;;;10.73;9.60;;;;;;;16.12;63.29;94132.50;5069291;28;20630;-45
2022/12/15 10:56:01;;;;;;;12.40;9.77;;;;;;;16.30;63.17;94174.13;5082603;28;20599;-44
2022/12/15 10:58:28;;;;;;;10.80;9.47;;;;;;;16.22;63.29;94171.66;5086852;28;20194;-46
2022/12/15 11:01:06;;;;;;;12.23;10.33;;;;;;;16.19;63.30;94174.59;5089363;28;20560;-45
2022/12/15 11:03:37;;;;;;;10.83;9.67;;;;;;;16.10;63.36;94171.34;5075013;28;20208;-46
2022/12/15 11:06:14;;;;;;;11.17;9.83;;;;;;;16.00;63.55;94168.28;5079863;28;20201;-49
2022/12/15 11:08:44;;;;;;;12.90;9.63;;;;;;;15.94;63.45;94167.25;5068921;28;20222;-47
2022/12/15 11:14:17;;;;;;;12.00;9.17;;;;;;;15.78;63.55;94162.31;5077248;28;20189;-44
2022/12/15 11:16:50;;;;;;;12.80;10.83;;;;;;;15.74;63.71;94172.19;5088872;28;20189;-44
2022/12/15 11:19:31;;;;;;;13.33;10.37;;;;;;;15.61;63.59;94155.75;5089484;28;20221;-43
2022/12/15 11:22:03;;;;;;;15.77;11.27;;;;;;;15.64;63.73;94176.03;5077298;28;20187;-43
2022/12/15 11:24:38;;;;;;;14.03;11.13;;;;;;;15.55;63.78;94168.41;5083300;28;20201;-43
2022/12/15 11:27:14;;;;;;;13.20;10.53;;;;;;;15.47;63.97;94168.50;5075293;28;20189;-45
2022/12/15 11:29:54;;;;;;;14.33;11.73;;;;;;;15.28;63.80;94146.69;5068704;28;20226;-43
2022/12/15 11:32:25;;;;;;;13.10;11.43;;;;;;;15.40;63.64;94174.53;5087472;28;20198;-45
2022/12/15 11:34:52;;;;;;;18.30;13.10;;;;;;;15.38;63.87;94172.16;5089109;28;20209;-44
2022/12/15 11:37:38;;;;;;;15.50;11.73;;;;;;;15.37;63.86;94167.16;5078331;28;20193;-43
2022/12/15 11:40:29;;;;;;;17.90;12.70;;;;;;;15.37;63.69;94180.03;5087636;28;20617;-43
2022/12/15 11:43:20;;;;;;;18.30;13.23;;;;;;;15.32;63.88;94170.28;5068419;28;20201;-44
2022/12/15 11:45:57;;;;;;;17.50;13.87;;;;;;;15.10;63.75;94148.00;5070843;28;20186;-43
2022/12/15 11:48:32;;;;;;;15.67;13.00;;;;;;;15.30;63.77;94179.97;5068389;28;20213;-43
2022/12/15 11:51:02;;;;;;;17.80;13.23;;;;;;;15.28;63.79;94175.00;5068488;28;20649;-43
2022/12/15 11:54:08;;;;;;;18.83;14.27;;;;;;;15.27;63.72;94182.91;5068417;28;20209;-44
2022/12/15 11:56:42;;;;;;;18.80;13.77;;;;;;;15.22;63.70;94186.00;5025738;28;20223;-44
2022/12/15 11:59:38;;;;;;;21.77;14.67;;;;;;;15.19;63.67;94188.16;5025760;28;20305;-46
2022/12/15 12:02:29;;;;;;;17.00;14.00;;;;;;;15.16;63.82;94191.88;5025668;28;20753;-45
2022/12/15 12:05:14;;;;;;;20.27;14.27;;;;;;;15.12;63.90;94195.78;5025991;28;20202;-44
2022/12/15 12:07:45;;;;;;;16.57;13.67;;;;;;;15.09;63.50;94198.72;5025680;28;20195;-44
2022/12/15 12:10:28;;;;;;;21.33;14.43;;;;;;;15.06;63.85;94199.06;5025812;28;20222;-43
2022/12/15 12:13:04;;;;;;;20.33;15.00;;;;;;;15.02;63.69;94190.09;5025640;28;20287;-44
2022/12/15 12:15:42;;;;;;;22.73;15.57;;;;;;;15.01;63.85;94199.59;5025292;28;20219;-44
2022/12/15 12:18:17;;;;;;;17.80;14.90;;;;;;;14.94;63.82;94192.75;5024785;28;20683;-44
2022/12/15 12:20:49;;;;;;;18.23;15.30;;;;;;;14.92;64.00;94200.66;5024288;28;20668;-44
2022/12/15 12:23:22;;;;;;;19.23;15.27;;;;;;;14.91;63.79;94201.63;5025817;28;20195;-45
2022/12/15 12:25:58;;;;;;;17.87;15.00;;;;;;;14.89;63.79;94206.16;5022084;28;20195;-44
2022/12/15 12:28:34;;;;;;;18.33;15.30;;;;;;;14.85;63.91;94206.69;5024365;28;20200;-45
2022/12/15 12:31:03;;;;;;;20.77;15.60;;;;;;;14.80;63.91;94209.78;5025640;28;20286;-44
2022/12/15 12:33:36;;;;;;;23.33;15.17;;;;;;;14.76;64.13;94216.25;5048638;28;20279;-44
2022/12/15 12:36:10;;;;;;;23.93;15.43;;;;;;;14.74;63.90;94218.22;5071255;28;20243;-44
2022/12/15 12:38:45;;;;;;;22.97;16.10;;;;;;;14.71;63.91;94213.41;5073198;28;20261;-44
2022/12/15 12:41:20;;;;;;;17.53;15.30;;;;;;;14.71;63.87;94232.22;5067734;28;20289;-46
2022/12/15 12:43:52;;;;;;;20.40;16.10;;;;;;;14.69;63.75;94235.97;5077133;28;20677;-45
2022/12/15 12:46:24;;;;;;;21.17;16.33;;;;;;;14.61;64.09;94225.72;5068956;28;20190;-43
2022/12/15 12:48:55;;;;;;;21.53;15.60;;;;;;;14.55;64.11;94225.47;5067958;28;20279;-44
2022/12/15 12:51:27;;;;;;;19.07;15.70;;;;;;;14.46;64.19;94221.28;5068265;28;20213;-44
2022/12/15 12:53:54;;;;;;;20.67;15.70;;;;;;;14.46;64.22;94230.78;5079890;28;20239;-44
2022/12/15 12:56:37;;;;;;;18.97;15.87;;;;;;;14.39;64.52;94228.13;5067891;28;20291;-45
2022/12/15 12:59:35;;;;;;;20.80;15.33;;;;;;;14.33;64.40;94233.94;5079468;28;20197;-44
2022/12/15 13:02:55;;;;;;;18.60;15.60;;;;;;;14.27;64.63;94237.19;5071559;28;20206;-47
2022/12/15 13:05:31;;;;;;;18.83;14.77;;;;;;;14.23;64.82;94244.44;5020596;28;20198;-45
2022/12/15 13:08:29;;;;;;;20.00;15.93;;;;;;;14.18;64.75;94236.47;5028161;28;20191;-44
2022/12/15 13:10:56;;;;;;;21.73;16.67;;;;;;;14.14;64.78;94244.69;5014088;28;20632;-45
2022/12/15 13:13:43;;;;;;;21.70;16.57;;;;;;;14.10;64.99;94233.94;5016545;28;20196;-43
2022/12/15 13:16:19;;;;;;;21.50;16.13;;;;;;;14.06;65.00;94230.09;5020624;28;20223;-43
2022/12/15 13:18:57;;;;;;;19.63;16.33;;;;;;;14.02;65.00;94239.91;5022275;28;20195;-43
2022/12/15 13:21:54;;;;;;;23.63;16.63;;;;;;;14.01;65.22;94256.31;5019848;28;20311;-44
2022/12/15 13:24:31;;;;;;;23.47;16.47;;;;;;;13.83;65.36;94235.22;5017406;28;20622;-43
2022/12/15 13:27:12;;;;;;;21.60;16.80;;;;;;;13.92;65.23;94253.97;5021619;28;20284;-44
2022/12/15 13:29:55;;;;;;;19.33;16.33;;;;;;;13.88;65.40;94260.41;5014387;28;20672;-45
2022/12/15 13:32:31;;;;;;;19.67;15.83;;;;;;;13.86;65.49;94254.63;5011097;28;20215;-42
2022/12/15 13:35:03;;;;;;;20.03;15.97;;;;;;;13.77;65.60;94251.28;5022319;28;20206;-42
2022/12/15 13:37:49;;;;;;;19.37;16.27;;;;;;;13.75;65.70;94254.03;5011877;28;20188;-43
2022/12/15 13:40:33;;;;;;;19.90;15.47;;;;;;;13.71;65.91;94254.56;5022712;28;20220;-44
2022/12/15 13:43:09;;;;;;;23.20;16.60;;;;;;;13.66;65.95;94261.97;5074572;28;20229;-44
2022/12/15 13:45:47;;;;;;;23.00;16.70;;;;;;;13.62;66.04;94268.41;5078844;28;20578;-43
2022/12/15 13:48:30;;;;;;;19.00;16.03;;;;;;;13.50;65.93;94263.63;5080763;28;20193;-45
2022/12/15 13:51:18;;;;;;;21.70;16.70;;;;;;;13.52;66.19;94269.41;5081781;28;20823;-45
2022/12/15 13:53:48;;;;;;;20.93;16.60;;;;;;;13.47;66.22;94273.41;5079126;28;20206;-43
2022/12/15 13:56:35;;;;;;;22.23;16.17;;;;;;;13.41;66.21;94276.66;5080880;28;20259;-44
2022/12/15 13:59:06;;;;;;;23.83;18.37;;;;;;;13.34;66.42;94278.28;5078700;28;20187;-44
2022/12/15 14:01:33;;;;;;;21.47;18.00;;;;;;;13.20;66.39;94280.53;5075910;28;20193;-43
2022/12/15 14:04:07;;;;;;;23.93;18.83;;;;;;;13.21;66.79;94294.97;5079883;28;20247;-45
2022/12/15 14:06:40;;;;;;;27.20;20.17;;;;;;;13.15;66.58;94292.25;5078723;28;20194;-45
2022/12/15 14:09:13;;;;;;;27.47;20.27;;;;;;;13.07;66.94;94304.13;5076212;28;20207;-43
2022/12/15 14:11:42;;;;;;;26.47;20.37;;;;;;;12.97;66.91;94292.44;5084323;28;20720;-43
2022/12/15 14:14:18;;;;;;;30.13;20.53;;;;;;;12.71;66.94;94277.22;5075556;28;20185;-42
2022/12/15 14:16:45;;;;;;;23.87;19.93;;;;;;;12.85;67.19;94309.13;5073507;28;20201;-43